createdAt,value
2016-07-08T06:05:07.830Z,19.7
2016-07-08T06:06:07.822Z,19.78
2016-07-08T06:07:07.612Z,19.78
2016-07-08T06:08:07.596Z,19.8
2016-07-08T06:09:07.587Z,19.75
2016-07-08T06:10:07.780Z,19.87
2016-07-08T06:11:07.567Z,19.75
2016-07-08T06:12:07.568Z,19.82
2016-07-08T06:13:07.556Z,19.93
2016-07-08T06:14:07.551Z,19.85
2016-07-08T06:15:07.545Z,19.85
2016-07-08T06:16:07.542Z,19.95
2016-07-08T06:17:07.534Z,19.97
2016-07-08T06:18:07.525Z,19.93
2016-07-08T06:19:07.526Z,20.04
2016-07-08T06:20:07.520Z,20.15
2016-07-08T06:21:07.511Z,20.15
2016-07-08T06:22:07.516Z,20.11
2016-07-08T06:23:07.507Z,20.18
2016-07-08T06:24:07.511Z,20.25
2016-07-08T06:25:07.502Z,20.23
2016-07-08T06:26:07.496Z,20.25
2016-07-08T06:27:07.493Z,20.37
2016-07-08T06:28:07.488Z,20.38
2016-07-08T06:29:07.498Z,20.44
2016-07-08T06:30:07.486Z,20.41
2016-07-08T06:31:08.539Z,20.48
2016-07-08T06:32:07.478Z,20.56
2016-07-08T06:33:07.476Z,20.64
2016-07-08T06:34:07.480Z,20.75
2016-07-08T06:35:07.485Z,20.68
2016-07-08T06:36:07.685Z,20.72
2016-07-08T06:37:07.474Z,20.78
2016-07-08T06:38:07.474Z,20.83
2016-07-08T06:39:07.469Z,20.88
2016-07-08T06:40:07.471Z,20.93
2016-07-08T06:41:07.464Z,20.98
2016-07-08T06:42:07.463Z,20.96
2016-07-08T06:43:07.455Z,21.09
2016-07-08T06:44:07.473Z,21.08
2016-07-08T06:45:07.460Z,21.08
2016-07-08T06:46:07.463Z,21.15
2016-07-08T06:47:07.461Z,21.16
2016-07-08T06:48:07.454Z,21.25
2016-07-08T06:49:07.459Z,21.31
2016-07-08T06:50:07.458Z,21.28
2016-07-08T06:51:07.458Z,21.37
2016-07-08T06:52:07.453Z,21.52
2016-07-08T06:53:07.667Z,21.52
2016-07-08T06:54:07.453Z,21.49
2016-07-08T06:55:07.668Z,21.53
2016-07-08T06:56:07.445Z,21.62
2016-07-08T06:57:07.468Z,21.59
2016-07-08T06:58:07.476Z,21.73
2016-07-08T06:59:07.478Z,21.66
2016-07-08T07:00:07.561Z,21.77
2016-07-08T07:01:07.673Z,21.68
2016-07-08T07:02:07.453Z,21.8
2016-07-08T07:03:07.453Z,21.89
2016-07-08T07:04:07.451Z,21.8
2016-07-08T07:05:07.455Z,21.78
2016-07-08T07:06:07.651Z,21.83
2016-07-08T07:07:07.479Z,21.92
2016-07-08T07:08:08.163Z,21.85
2016-07-08T07:09:07.722Z,21.99
2016-07-08T07:10:07.847Z,21.99
2016-07-08T07:11:07.464Z,22.02
2016-07-08T07:12:10.459Z,22
2016-07-08T07:13:08.257Z,22.09
2016-07-08T07:14:07.461Z,22.14
2016-07-08T07:15:07.989Z,22.2
2016-07-08T07:16:07.512Z,22.24
2016-07-08T07:17:07.459Z,22.26
2016-07-08T07:18:07.479Z,22.3
2016-07-08T07:19:07.513Z,22.24
2016-07-08T07:20:07.661Z,22.3
2016-07-08T07:21:07.572Z,22.38
2016-07-08T07:22:07.506Z,22.38
2016-07-08T07:23:07.514Z,22.48
2016-07-08T07:24:07.639Z,22.46
2016-07-08T07:25:07.467Z,22.46
2016-07-08T07:26:07.474Z,22.57
2016-07-08T07:27:07.518Z,22.63
2016-07-08T07:28:07.476Z,22.59
2016-07-08T07:29:07.551Z,22.61
2016-07-08T07:30:07.481Z,22.73
2016-07-08T07:31:07.462Z,22.66
2016-07-08T07:32:07.673Z,22.73
2016-07-08T07:33:07.476Z,22.76
2016-07-08T07:34:07.484Z,22.78
2016-07-08T07:35:07.476Z,22.85
2016-07-08T07:36:07.486Z,22.86
2016-07-08T07:37:07.478Z,22.88
2016-07-08T07:38:07.487Z,22.92
2016-07-08T07:39:07.912Z,22.99
2016-07-08T07:40:07.482Z,22.91
2016-07-08T07:41:07.475Z,23.04
2016-07-08T07:42:07.477Z,23.12
2016-07-08T07:43:07.483Z,23.14
2016-07-08T07:44:07.504Z,23.16
2016-07-08T07:45:07.515Z,23.14
2016-07-08T07:46:07.546Z,23.22
2016-07-08T07:47:07.491Z,23.25
2016-07-08T07:48:07.522Z,23.26
2016-07-08T07:49:07.495Z,23.29
2016-07-08T07:50:07.484Z,23.4
2016-07-08T07:51:07.498Z,23.44
2016-07-08T07:52:07.490Z,23.41
2016-07-08T07:53:07.695Z,23.53
2016-07-08T07:54:07.492Z,23.55
2016-07-08T07:55:07.570Z,23.55
2016-07-08T07:56:07.698Z,23.48
2016-07-08T07:57:07.510Z,23.48
2016-07-08T07:58:07.498Z,23.62
2016-07-08T07:59:07.501Z,23.62
2016-07-08T08:00:07.508Z,23.62
2016-07-08T08:01:07.512Z,23.62
2016-07-08T08:02:07.783Z,23.72
2016-07-08T08:03:07.505Z,23.63
2016-07-08T08:04:07.515Z,23.71
2016-07-08T08:05:07.504Z,23.77
2016-07-08T08:06:08.002Z,23.84
2016-07-08T08:07:07.516Z,23.84
2016-07-08T08:08:07.535Z,23.82
2016-07-08T08:09:07.516Z,23.87
2016-07-08T08:10:07.517Z,23.89
2016-07-08T08:11:07.757Z,23.85
2016-07-08T08:12:07.519Z,23.82
2016-07-08T08:13:07.726Z,23.9
2016-07-08T08:14:07.520Z,24
2016-07-08T08:15:07.819Z,23.9
2016-07-08T08:16:07.533Z,23.99
2016-07-08T08:17:07.526Z,23.93
2016-07-08T08:18:07.541Z,23.94
2016-07-08T08:19:07.541Z,24.02
2016-07-08T08:20:07.537Z,24
2016-07-08T08:21:07.544Z,24.03
2016-07-08T08:22:07.541Z,24.02
2016-07-08T08:23:07.601Z,24.07
2016-07-08T08:24:07.548Z,23.97
2016-07-08T08:25:07.546Z,24.02
2016-07-08T08:26:07.552Z,24.11
2016-07-08T08:27:07.752Z,24.11
2016-07-08T08:28:07.555Z,24.08
2016-07-08T08:29:07.553Z,24.15
2016-07-08T08:30:07.556Z,24.11
2016-07-08T08:31:07.621Z,24.21
2016-07-08T08:32:07.556Z,24.17
2016-07-08T08:33:07.767Z,24.24
2016-07-08T08:34:07.563Z,24.26
2016-07-08T08:35:07.564Z,24.21
2016-07-08T08:36:07.561Z,24.3
2016-07-08T08:37:07.578Z,24.3
2016-07-08T08:38:07.570Z,24.26
2016-07-08T08:39:07.568Z,24.29
2016-07-08T08:40:07.569Z,24.33
2016-07-08T08:41:07.580Z,24.36
2016-07-08T08:42:07.581Z,24.37
2016-07-08T08:43:07.586Z,24.42
2016-07-08T08:44:07.589Z,24.4
2016-07-08T08:45:07.601Z,24.48
2016-07-08T08:46:07.787Z,24.4
2016-07-08T08:47:07.598Z,24.44
2016-07-08T08:48:07.611Z,24.34
2016-07-08T08:49:07.588Z,24.36
2016-07-08T08:50:07.609Z,24.45
2016-07-08T08:51:07.596Z,24.48
2016-07-08T08:52:07.592Z,24.37
2016-07-08T08:53:07.602Z,24.46
2016-07-08T08:54:07.601Z,24.49
2016-07-08T08:55:07.608Z,24.56
2016-07-08T08:56:07.611Z,24.51
2016-07-08T08:57:07.619Z,24.48
2016-07-08T08:58:07.617Z,24.52
2016-07-08T08:59:07.615Z,24.52
2016-07-08T09:00:07.616Z,24.56
2016-07-08T09:01:07.631Z,24.56
2016-07-08T09:02:07.616Z,24.59
2016-07-08T09:03:07.617Z,24.56
2016-07-08T09:04:07.625Z,24.61
2016-07-08T09:05:07.638Z,24.55
2016-07-08T09:06:07.638Z,24.67
2016-07-08T09:07:07.649Z,24.69
2016-07-08T09:08:07.639Z,24.69
2016-07-08T09:09:07.978Z,24.69
2016-07-08T09:10:07.669Z,24.66
2016-07-08T09:11:07.638Z,24.63
2016-07-08T09:12:07.656Z,24.74
2016-07-08T09:13:07.651Z,24.64
2016-07-08T09:14:07.646Z,24.67
2016-07-08T09:15:07.642Z,24.71
2016-07-08T09:16:07.850Z,24.74
2016-07-08T09:17:07.653Z,24.69
2016-07-08T09:18:07.661Z,24.77
2016-07-08T09:19:07.656Z,24.69
2016-07-08T09:20:08.022Z,24.61
2016-07-08T09:21:07.667Z,24.74
2016-07-08T09:22:07.667Z,24.69
2016-07-08T09:23:07.694Z,24.64
2016-07-08T09:24:11.657Z,24.64
2016-07-08T09:25:07.676Z,24.61
2016-07-08T09:26:07.683Z,24.71
2016-07-08T09:27:07.682Z,24.77
2016-07-08T09:28:07.675Z,24.74
2016-07-08T09:29:07.688Z,24.74
2016-07-08T09:30:07.742Z,24.77
2016-07-08T09:31:07.891Z,24.7
2016-07-08T09:32:07.692Z,24.7
2016-07-08T09:33:07.775Z,24.83
2016-07-08T09:34:07.695Z,24.75
2016-07-08T09:35:07.900Z,24.87
2016-07-08T09:36:07.702Z,24.89
2016-07-08T09:37:07.698Z,24.86
2016-07-08T09:38:07.724Z,24.89
2016-07-08T09:39:07.714Z,24.9
2016-07-08T09:40:07.712Z,24.92
2016-07-08T09:41:07.713Z,24.96
2016-07-08T09:42:07.711Z,24.93
2016-07-08T09:43:07.908Z,24.9
2016-07-08T09:44:07.733Z,25
2016-07-08T09:45:07.718Z,25
2016-07-08T09:46:07.722Z,25
2016-07-08T09:47:07.810Z,25.01
2016-07-08T09:48:07.736Z,25.07
2016-07-08T09:49:07.728Z,25.09
2016-07-08T09:50:07.730Z,25.04
2016-07-08T09:51:07.726Z,25.07
2016-07-08T09:52:07.968Z,25.14
2016-07-08T09:53:07.738Z,25.05
2016-07-08T09:54:07.745Z,25.04
2016-07-08T09:55:07.943Z,25.2
2016-07-08T09:56:07.750Z,25.19
2016-07-08T09:57:07.948Z,25.15
2016-07-08T09:58:07.755Z,25.15
2016-07-08T09:59:07.755Z,25.12
2016-07-08T10:00:07.755Z,25.22
2016-07-08T10:01:07.764Z,25.27
2016-07-08T10:02:07.762Z,25.27
2016-07-08T10:03:07.848Z,25.22
2016-07-08T10:04:08.202Z,25.23
2016-07-08T10:05:07.784Z,25.32
2016-07-08T10:06:07.768Z,25.23
2016-07-08T10:07:07.777Z,25.29
2016-07-08T10:08:07.776Z,25.37
2016-07-08T10:09:07.781Z,25.24
2016-07-08T10:10:07.807Z,25.29
2016-07-08T10:11:07.798Z,25.3
2016-07-08T10:12:07.879Z,25.3
2016-07-08T10:13:07.790Z,25.3
2016-07-08T10:14:07.996Z,25.27
2016-07-08T10:15:08.327Z,25.3
2016-07-08T10:16:07.795Z,25.2
2016-07-08T10:17:08.468Z,25.27
2016-07-08T10:18:07.999Z,25.33
2016-07-08T10:19:07.842Z,25.27
2016-07-08T10:20:07.827Z,25.26
2016-07-08T10:21:07.910Z,25.26
2016-07-08T10:22:07.822Z,25.27
2016-07-08T10:23:08.026Z,25.3
2016-07-08T10:24:07.819Z,25.3
2016-07-08T10:25:08.246Z,25.22
2016-07-08T10:26:08.025Z,25.33
2016-07-08T10:27:07.834Z,25.29
2016-07-08T10:28:07.845Z,25.26
2016-07-08T10:29:08.486Z,25.27
2016-07-08T10:30:09.342Z,25.33
2016-07-08T10:31:07.837Z,25.37
2016-07-08T10:32:07.839Z,25.44
2016-07-08T10:33:07.848Z,25.48
2016-07-08T10:34:07.854Z,25.51
2016-07-08T10:35:07.850Z,25.59
2016-07-08T10:36:08.115Z,25.57
2016-07-08T10:37:07.858Z,25.6
2016-07-08T10:38:07.853Z,25.7
2016-07-08T10:39:07.864Z,25.67
2016-07-08T10:40:08.309Z,25.7
2016-07-08T10:41:07.866Z,25.81
2016-07-08T10:42:08.068Z,25.85
2016-07-08T10:43:07.868Z,25.84
2016-07-08T10:44:07.873Z,25.86
2016-07-08T10:45:07.888Z,25.91
2016-07-08T10:46:07.885Z,25.93
2016-07-08T10:47:07.880Z,25.88
2016-07-08T10:48:07.902Z,25.96
2016-07-08T10:49:07.889Z,26.03
2016-07-08T10:50:07.895Z,25.96
2016-07-08T10:51:07.902Z,25.99
2016-07-08T10:52:08.106Z,26.03
2016-07-08T10:53:07.902Z,26
2016-07-08T10:54:07.906Z,26.15
2016-07-08T10:55:07.903Z,26.09
2016-07-08T10:56:07.925Z,26.16
2016-07-08T10:57:07.913Z,26.17
2016-07-08T10:58:07.917Z,26.15
2016-07-08T10:59:07.942Z,26.16
2016-07-08T11:00:07.918Z,26.19
2016-07-08T11:01:07.933Z,26.16
2016-07-08T11:02:07.931Z,26.24
2016-07-08T11:03:07.941Z,26.2
2016-07-08T11:04:07.937Z,26.2
2016-07-08T11:05:07.987Z,26.2
2016-07-08T11:06:07.965Z,26.22
2016-07-08T11:07:07.953Z,26.12
2016-07-08T11:08:07.949Z,26.16
2016-07-08T11:09:07.955Z,26.16
2016-07-08T11:10:07.956Z,26.11
2016-07-08T11:11:07.961Z,26.03
2016-07-08T11:12:07.964Z,26.04
2016-07-08T11:13:08.221Z,26.01
2016-07-08T11:14:07.968Z,25.96
2016-07-08T11:15:07.976Z,25.89
2016-07-08T11:16:07.984Z,26
2016-07-08T11:17:07.978Z,25.91
2016-07-08T11:18:07.987Z,25.91
2016-07-08T11:19:08.180Z,25.88
2016-07-08T11:20:07.988Z,25.97
2016-07-08T11:21:07.995Z,25.91
2016-07-08T11:22:07.999Z,25.89
2016-07-08T11:23:08.001Z,25.89
2016-07-08T11:24:08.002Z,25.85
2016-07-08T11:25:08.006Z,25.85
2016-07-08T11:26:08.007Z,25.81
2016-07-08T11:27:08.008Z,25.88
2016-07-08T11:28:08.088Z,25.88
2016-07-08T11:29:08.135Z,25.93
2016-07-08T11:30:08.021Z,25.85
2016-07-08T11:31:08.019Z,25.88
2016-07-08T11:32:08.030Z,25.86
2016-07-08T11:33:08.645Z,25.79
2016-07-08T11:34:09.656Z,25.84
2016-07-08T11:35:08.042Z,25.81
2016-07-08T11:36:08.042Z,25.71
2016-07-08T11:37:08.043Z,25.64
2016-07-08T11:38:08.060Z,25.7
2016-07-08T11:39:08.046Z,25.59
2016-07-08T11:40:08.256Z,25.57
2016-07-08T11:41:08.054Z,25.54
2016-07-08T11:42:09.493Z,25.45
2016-07-08T11:43:08.080Z,25.44
2016-07-08T11:44:08.281Z,25.44
2016-07-08T11:45:08.072Z,25.41
2016-07-08T11:46:08.372Z,25.34
2016-07-08T11:47:08.142Z,25.37
2016-07-08T11:48:08.252Z,25.44
2016-07-08T11:49:08.129Z,25.41
2016-07-08T11:50:08.086Z,25.47
2016-07-08T11:51:08.392Z,25.47
2016-07-08T11:52:08.108Z,25.6
2016-07-08T11:53:08.094Z,25.6
2016-07-08T11:54:08.102Z,25.51
2016-07-08T11:55:08.104Z,25.52
2016-07-08T11:56:08.111Z,25.54
2016-07-08T11:57:08.109Z,25.59
2016-07-08T11:58:08.194Z,25.59
2016-07-08T11:59:08.107Z,25.71
2016-07-08T12:00:08.167Z,25.74
2016-07-08T12:01:08.124Z,25.79
2016-07-08T12:02:08.341Z,25.86
2016-07-08T12:03:08.122Z,25.89
2016-07-08T12:04:08.125Z,25.89
2016-07-08T12:05:08.501Z,25.91
2016-07-08T12:06:08.133Z,25.94
2016-07-08T12:07:08.130Z,25.94
2016-07-08T12:08:08.134Z,26.01
2016-07-08T12:09:08.139Z,26.07
2016-07-08T12:10:08.346Z,26
2016-07-08T12:11:08.140Z,26.16
2016-07-08T12:12:08.152Z,26.19
2016-07-08T12:13:08.157Z,26.22
2016-07-08T12:14:08.154Z,26.17
2016-07-08T12:15:08.161Z,26.16
2016-07-08T12:16:08.167Z,26.26
2016-07-08T12:17:08.170Z,26.3
2016-07-08T12:18:08.167Z,26.38
2016-07-08T12:19:08.170Z,26.34
2016-07-08T12:20:08.175Z,26.32
2016-07-08T12:21:08.224Z,26.3
2016-07-08T12:22:08.182Z,26.26
2016-07-08T12:23:08.182Z,26.32
2016-07-08T12:24:08.186Z,26.37
2016-07-08T12:25:08.192Z,26.34
2016-07-08T12:26:08.196Z,26.38
2016-07-08T12:27:08.196Z,26.39
2016-07-08T12:28:08.202Z,26.45
2016-07-08T12:29:08.203Z,26.49
2016-07-08T12:30:08.205Z,26.52
2016-07-08T12:31:08.219Z,26.57
2016-07-08T12:32:08.218Z,26.59
2016-07-08T12:33:08.214Z,26.57
2016-07-08T12:34:08.243Z,26.68
2016-07-08T12:35:09.677Z,26.67
2016-07-08T12:36:10.011Z,26.68
2016-07-08T12:37:08.430Z,26.69
2016-07-08T12:38:08.238Z,26.76
2016-07-08T12:39:08.236Z,26.71
2016-07-08T12:40:08.242Z,26.72
2016-07-08T12:41:08.246Z,26.78
2016-07-08T12:42:08.250Z,26.79
2016-07-08T12:43:08.248Z,26.82
2016-07-08T12:44:08.581Z,26.79
2016-07-08T12:45:08.469Z,26.69
2016-07-08T12:46:08.262Z,26.69
2016-07-08T12:47:08.269Z,26.64
2016-07-08T12:48:08.473Z,26.67
2016-07-08T12:49:08.280Z,26.6
2016-07-08T12:50:08.277Z,26.54
2016-07-08T12:51:08.370Z,26.59
2016-07-08T12:52:08.299Z,26.5
2016-07-08T12:53:08.323Z,26.45
2016-07-08T12:54:08.497Z,26.49
2016-07-08T12:55:08.298Z,26.57
2016-07-08T12:56:08.310Z,26.47
2016-07-08T12:57:08.301Z,26.47
2016-07-08T12:58:08.308Z,26.5
2016-07-08T12:59:08.308Z,26.6
2016-07-08T13:00:08.400Z,26.54
2016-07-08T13:01:08.320Z,26.57
2016-07-08T13:02:08.322Z,26.67
2016-07-08T13:03:08.320Z,26.67
2016-07-08T13:04:08.329Z,26.67
2016-07-08T13:05:08.348Z,26.64
2016-07-08T13:06:08.339Z,26.68
2016-07-08T13:07:08.537Z,26.57
2016-07-08T13:08:08.343Z,26.56
2016-07-08T13:09:08.344Z,26.6
2016-07-08T13:10:08.359Z,26.61
2016-07-08T13:11:08.389Z,26.69
2016-07-08T13:12:08.356Z,26.64
2016-07-08T13:13:08.362Z,26.68
2016-07-08T13:14:08.360Z,26.64
2016-07-08T13:15:08.374Z,26.67
2016-07-08T13:16:08.549Z,26.72
2016-07-08T13:17:08.444Z,26.63
2016-07-08T13:18:08.381Z,26.68
2016-07-08T13:19:08.396Z,26.64
2016-07-08T13:20:08.388Z,26.67
2016-07-08T13:21:08.436Z,26.72
2016-07-08T13:22:08.391Z,26.6
2016-07-08T13:23:08.394Z,26.6
2016-07-08T13:24:08.603Z,26.57
2016-07-08T13:25:08.412Z,26.59
2016-07-08T13:26:08.435Z,26.59
2016-07-08T13:27:08.451Z,26.56
2016-07-08T13:28:08.444Z,26.61
2016-07-08T13:29:08.643Z,26.57
2016-07-08T13:30:08.445Z,26.6
2016-07-08T13:31:08.424Z,26.63
2016-07-08T13:32:08.422Z,26.59
2016-07-08T13:33:08.427Z,26.61
2016-07-08T13:34:08.434Z,26.61
2016-07-08T13:35:08.439Z,26.59
2016-07-08T13:36:08.440Z,26.63
2016-07-08T13:37:08.447Z,26.54
2016-07-08T13:38:08.442Z,26.59
2016-07-08T13:39:08.529Z,26.54
2016-07-08T13:40:08.654Z,26.53
2016-07-08T13:41:08.455Z,26.42
2016-07-08T13:42:08.461Z,26.49
2016-07-08T13:43:08.469Z,26.47
2016-07-08T13:44:08.465Z,26.52
2016-07-08T13:45:08.739Z,26.44
2016-07-08T13:46:08.472Z,26.5
2016-07-08T13:47:08.482Z,26.44
2016-07-08T13:48:08.480Z,26.49
2016-07-08T13:49:08.520Z,26.45
2016-07-08T13:50:08.552Z,26.5
2016-07-08T13:51:08.557Z,26.47
2016-07-08T13:52:08.970Z,26.56
2016-07-08T13:53:08.501Z,26.45
2016-07-08T13:54:08.500Z,26.5
2016-07-08T13:55:08.532Z,26.57
2016-07-08T13:56:08.509Z,26.45
2016-07-08T13:57:08.682Z,26.5
2016-07-08T13:58:08.513Z,26.53
2016-07-08T13:59:08.515Z,26.5
2016-07-08T14:00:08.522Z,26.42
2016-07-08T14:01:08.522Z,26.32
2016-07-08T14:02:08.528Z,26.34
2016-07-08T14:03:08.529Z,26.32
2016-07-08T14:05:45.044Z,26.37
2016-07-08T14:06:45.050Z,26.38
2016-07-08T14:07:45.055Z,26.41
2016-07-08T14:08:45.057Z,26.3
2016-07-08T14:09:45.070Z,26.32
2016-07-08T14:10:45.261Z,26.27
2016-07-08T14:11:45.066Z,26.32
2016-07-08T14:12:45.068Z,26.3
2016-07-08T14:13:45.074Z,26.31
2016-07-08T14:14:45.073Z,26.24
2016-07-08T14:15:45.075Z,26.31
2016-07-08T14:16:45.082Z,26.3
2016-07-08T14:17:45.085Z,26.26
2016-07-08T14:18:45.286Z,26.34
2016-07-08T14:19:45.088Z,26.32
2016-07-08T14:20:45.092Z,26.35
2016-07-08T14:21:45.091Z,26.32
2016-07-08T14:22:45.099Z,26.38
2016-07-08T14:23:45.099Z,26.39
2016-07-08T14:24:45.105Z,26.34
2016-07-08T14:25:45.109Z,26.32
2016-07-08T14:26:45.112Z,26.42
2016-07-08T14:27:45.319Z,26.41
2016-07-08T14:28:45.111Z,26.42
2016-07-08T14:29:45.122Z,26.37
2016-07-08T14:30:45.118Z,26.37
2016-07-08T14:31:45.123Z,26.32
2016-07-08T14:32:45.132Z,26.35
2016-07-08T14:33:45.122Z,26.35
2016-07-08T14:34:45.140Z,26.35
2016-07-08T14:35:45.138Z,26.31
2016-07-08T14:36:45.132Z,26.34
2016-07-08T14:37:45.160Z,26.47
2016-07-08T14:38:45.145Z,26.42
2016-07-08T14:39:45.146Z,26.45
2016-07-08T14:40:45.353Z,26.44
2016-07-08T14:41:45.158Z,26.45
2016-07-08T14:42:45.158Z,26.42
2016-07-08T14:43:45.160Z,26.5
2016-07-08T14:44:45.166Z,26.42
2016-07-08T14:45:45.166Z,26.47
2016-07-08T14:46:45.165Z,26.45
2016-07-08T14:47:45.172Z,26.47
2016-07-08T14:48:45.518Z,26.45
2016-07-08T14:49:45.179Z,26.45
2016-07-08T14:50:45.175Z,26.39
2016-07-08T14:51:45.192Z,26.44
2016-07-08T14:52:45.186Z,26.44
2016-07-08T14:53:45.193Z,26.5
2016-07-08T14:54:45.203Z,26.44
2016-07-08T14:55:45.201Z,26.35
2016-07-08T14:56:45.204Z,26.45
2016-07-08T14:57:45.206Z,26.37
2016-07-08T14:58:45.639Z,26.49
2016-07-08T14:59:45.214Z,26.34
2016-07-08T15:00:45.216Z,26.45
2016-07-08T15:01:45.219Z,26.42
2016-07-08T15:02:45.220Z,26.45
2016-07-08T15:03:45.227Z,26.34
2016-07-08T15:04:45.231Z,26.35
2016-07-08T15:05:45.234Z,26.42
2016-07-08T15:06:45.237Z,26.38
2016-07-08T15:07:45.238Z,26.41
2016-07-08T15:08:45.441Z,26.34
2016-07-08T15:09:45.246Z,26.42
2016-07-08T15:10:45.249Z,26.38
2016-07-08T15:11:45.253Z,26.32
2016-07-08T15:12:45.268Z,26.38
2016-07-08T15:13:45.457Z,26.38
2016-07-08T15:14:45.267Z,26.31
2016-07-08T15:15:45.462Z,26.39
2016-07-08T15:16:45.264Z,26.35
2016-07-08T15:17:45.473Z,26.41
2016-07-08T15:18:45.267Z,26.34
2016-07-08T15:19:45.272Z,26.32
2016-07-08T15:20:45.276Z,26.42
2016-07-08T15:21:45.331Z,26.41
2016-07-08T15:22:45.285Z,26.38
2016-07-08T15:23:45.489Z,26.41
2016-07-08T15:24:45.294Z,26.27
2016-07-08T15:25:45.294Z,26.39
2016-07-08T15:26:45.296Z,26.38
2016-07-08T15:27:45.307Z,26.35
2016-07-08T15:28:45.299Z,26.37
2016-07-08T15:29:45.310Z,26.34
2016-07-08T15:30:45.311Z,26.32
2016-07-08T15:31:45.511Z,26.34
2016-07-08T15:32:45.315Z,26.35
2016-07-08T15:33:45.320Z,26.38
2016-07-08T15:34:45.322Z,26.31
2016-07-08T15:35:45.315Z,26.27
2016-07-08T15:36:45.531Z,26.26
2016-07-08T15:37:45.328Z,26.32
2016-07-08T15:38:45.537Z,26.38
2016-07-08T15:39:45.334Z,26.26
2016-07-08T15:40:45.335Z,26.31
2016-07-08T15:41:45.546Z,26.3
2016-07-08T15:42:45.338Z,26.31
2016-07-08T15:43:45.551Z,26.23
2016-07-08T15:44:45.369Z,26.26
2016-07-08T15:45:45.352Z,26.2
2016-07-08T15:46:45.367Z,26.24
2016-07-08T15:47:45.367Z,26.19
2016-07-08T15:48:45.568Z,26.3
2016-07-08T15:49:45.364Z,26.31
2016-07-08T15:50:45.571Z,26.24
2016-07-08T15:51:45.374Z,26.16
2016-07-08T15:52:45.381Z,26.23
2016-07-08T15:53:45.580Z,26.2
2016-07-08T15:54:45.386Z,26.22
2016-07-08T15:55:45.381Z,26.27
2016-07-08T15:56:45.389Z,26.23
2016-07-08T15:57:45.383Z,26.16
2016-07-08T15:58:45.387Z,26.24
2016-07-08T15:59:45.391Z,26.16
2016-07-08T16:00:45.399Z,26.19
2016-07-08T16:01:45.396Z,26.17
2016-07-08T16:02:45.400Z,26.24
2016-07-08T16:03:45.405Z,26.16
2016-07-08T16:04:45.402Z,26.16
2016-07-08T16:05:45.410Z,26.2
2016-07-08T16:06:45.417Z,26.15
2016-07-08T16:07:45.622Z,26.2
2016-07-08T16:08:45.417Z,26.23
2016-07-08T16:09:45.423Z,26.23
2016-07-08T16:10:45.420Z,26.19
2016-07-08T16:11:45.429Z,26.26
2016-07-08T16:12:45.428Z,26.19
2016-07-08T16:13:45.433Z,26.24
2016-07-08T16:14:45.432Z,26.24
2016-07-08T16:15:45.439Z,26.22
2016-07-08T16:16:45.444Z,26.2
2016-07-08T16:17:45.437Z,26.23
2016-07-08T16:18:45.659Z,26.19
2016-07-08T16:19:45.449Z,26.26
2016-07-08T16:20:45.449Z,26.23
2016-07-08T16:21:45.459Z,26.19
2016-07-08T16:22:45.458Z,26.16
2016-07-08T16:23:45.452Z,26.2
2016-07-08T16:24:45.468Z,26.24
2016-07-08T16:25:45.466Z,26.17
2016-07-08T16:26:45.466Z,26.17
2016-07-08T16:27:45.468Z,26.15
2016-07-08T16:28:45.473Z,26.16
2016-07-08T16:29:45.476Z,26.16
2016-07-08T16:30:45.481Z,26.19
2016-07-08T16:31:45.484Z,26.19
2016-07-08T16:32:45.482Z,26.2
2016-07-08T16:33:45.489Z,26.17
2016-07-08T16:34:45.491Z,26.11
2016-07-08T16:35:45.700Z,26.15
2016-07-08T16:36:45.500Z,26.2
2016-07-08T16:37:45.504Z,26.17
2016-07-08T16:38:45.500Z,26.17
2016-07-08T16:39:45.502Z,26.06
2016-07-08T16:40:45.506Z,26.16
2016-07-08T16:41:45.512Z,26.09
2016-07-08T16:42:45.517Z,26.16
2016-07-08T16:43:45.519Z,26.01
2016-07-08T16:44:45.520Z,26.04
2016-07-08T16:45:45.521Z,26.04
2016-07-08T16:46:45.524Z,26.04
2016-07-08T16:47:45.527Z,26.06
2016-07-08T16:48:45.543Z,26.16
2016-07-08T16:49:45.535Z,26.01
2016-07-08T16:50:45.538Z,26
2016-07-08T16:51:45.541Z,26.01
2016-07-08T16:52:45.545Z,26.03
2016-07-08T16:53:45.546Z,26.12
2016-07-08T16:54:45.553Z,26.06
2016-07-08T16:55:45.551Z,26.03
2016-07-08T16:56:45.552Z,26.09
2016-07-08T16:57:45.555Z,26
2016-07-08T16:58:45.558Z,26.04
2016-07-08T16:59:45.564Z,26.07
2016-07-08T17:00:45.566Z,25.99
2016-07-08T17:01:45.570Z,26.03
2016-07-08T17:02:45.572Z,26.01
2016-07-08T17:03:45.774Z,26.06
2016-07-08T17:04:45.580Z,26.04
2016-07-08T17:05:45.582Z,26.07
2016-07-08T17:06:45.791Z,26.01
2016-07-08T17:07:45.599Z,26.03
2016-07-08T17:08:45.592Z,25.99
2016-07-08T17:09:45.593Z,26.01
2016-07-08T17:10:45.599Z,26.01
2016-07-08T17:11:45.601Z,26.03
2016-07-08T17:12:45.805Z,25.99
2016-07-08T17:13:45.606Z,25.99
2016-07-08T17:14:45.616Z,25.96
2016-07-08T17:15:45.807Z,25.93
2016-07-08T17:16:45.625Z,25.91
2016-07-08T17:17:45.619Z,25.93
2016-07-08T17:18:45.826Z,26.01
2016-07-08T17:19:45.626Z,25.91
2016-07-08T17:20:45.637Z,25.97
2016-07-08T17:21:45.648Z,25.94
2016-07-08T17:22:45.634Z,25.96
2016-07-08T17:23:45.634Z,25.96
2016-07-08T17:24:45.642Z,25.94
2016-07-08T17:25:45.640Z,25.94
2016-07-08T17:26:45.645Z,25.93
2016-07-08T17:27:45.652Z,25.91
2016-07-08T17:28:45.661Z,25.89
2016-07-08T17:29:45.640Z,25.94
2016-07-08T17:30:45.655Z,25.94
2016-07-08T17:31:45.661Z,25.91
2016-07-08T17:32:45.665Z,26.01
2016-07-08T17:33:45.665Z,25.93
2016-07-08T17:34:45.667Z,25.89
2016-07-08T17:35:45.666Z,25.82
2016-07-08T17:36:45.874Z,25.89
2016-07-08T17:37:45.677Z,25.89
2016-07-08T17:38:45.681Z,25.93
2016-07-08T17:39:45.675Z,25.88
2016-07-08T17:40:45.693Z,25.96
2016-07-08T17:41:45.685Z,25.93
2016-07-08T17:42:45.699Z,25.99
2016-07-08T17:43:45.687Z,25.88
2016-07-08T17:44:45.694Z,25.93
2016-07-08T17:45:45.699Z,25.97
2016-07-08T17:46:45.713Z,25.84
2016-07-08T17:47:45.702Z,25.91
2016-07-08T17:48:45.706Z,25.81
2016-07-08T17:49:45.904Z,25.79
2016-07-08T17:50:45.711Z,25.82
2016-07-08T17:51:45.714Z,25.82
2016-07-08T17:52:45.715Z,25.81
2016-07-08T17:53:45.736Z,25.82
2016-07-08T17:54:45.720Z,25.86
2016-07-08T17:55:45.731Z,25.85
2016-07-08T17:56:45.723Z,25.79
2016-07-08T17:57:45.731Z,25.89
2016-07-08T17:58:45.733Z,25.85
2016-07-08T17:59:45.933Z,25.81
2016-07-08T18:00:45.740Z,25.82
2016-07-08T18:01:45.740Z,25.82
2016-07-08T18:02:45.741Z,25.88
2016-07-08T18:03:45.752Z,25.88
2016-07-08T18:04:45.747Z,25.85
2016-07-08T18:05:45.755Z,25.89
2016-07-08T18:06:45.755Z,25.86
2016-07-08T18:07:45.750Z,25.86
2016-07-08T18:08:45.758Z,25.86
2016-07-08T18:09:45.761Z,25.84
2016-07-08T18:10:45.761Z,25.91
2016-07-08T18:11:45.768Z,25.81
2016-07-08T18:12:45.970Z,25.79
2016-07-08T18:13:45.781Z,25.86
2016-07-08T18:14:45.778Z,25.78
2016-07-08T18:15:45.981Z,25.76
2016-07-08T18:16:45.792Z,25.81
2016-07-08T18:17:45.781Z,25.78
2016-07-08T18:18:45.985Z,25.78
2016-07-08T18:19:45.807Z,25.69
2016-07-08T18:20:45.996Z,25.69
2016-07-08T18:21:45.791Z,25.67
2016-07-08T18:22:46.196Z,25.74
2016-07-08T18:23:45.801Z,25.66
2016-07-08T18:24:46.007Z,25.67
2016-07-08T18:25:45.805Z,25.69
2016-07-08T18:26:45.823Z,25.71
2016-07-08T18:27:45.806Z,25.7
2016-07-08T18:28:45.809Z,25.69
2016-07-08T18:29:45.812Z,25.75
2016-07-08T18:30:45.809Z,25.69
2016-07-08T18:31:45.823Z,25.75
2016-07-08T18:32:45.825Z,25.69
2016-07-08T18:33:45.823Z,25.69
2016-07-08T18:34:45.827Z,25.7
2016-07-08T18:35:45.826Z,25.74
2016-07-08T18:36:45.842Z,25.7
2016-07-08T18:37:46.037Z,25.75
2016-07-08T18:38:45.840Z,25.67
2016-07-08T18:39:45.839Z,25.7
2016-07-08T18:40:45.843Z,25.69
2016-07-08T18:41:45.843Z,25.7
2016-07-08T18:42:45.846Z,25.69
2016-07-08T18:43:45.848Z,25.75
2016-07-08T18:44:45.844Z,25.6
2016-07-08T18:45:45.861Z,25.7
2016-07-08T18:46:45.860Z,25.6
2016-07-08T18:47:45.862Z,25.7
2016-07-08T18:48:45.865Z,25.7
2016-07-08T18:49:45.873Z,25.71
2016-07-08T18:50:45.870Z,25.59
2016-07-08T18:51:45.871Z,25.69
2016-07-08T18:52:45.881Z,25.56
2016-07-08T18:53:46.282Z,25.59
2016-07-08T18:54:45.883Z,25.62
2016-07-08T18:55:45.882Z,25.57
2016-07-08T18:56:45.887Z,25.62
2016-07-08T18:57:45.902Z,25.63
2016-07-08T18:58:46.091Z,25.57
2016-07-08T18:59:45.895Z,25.59
2016-07-08T19:00:45.898Z,25.62
2016-07-08T19:01:45.896Z,25.57
2016-07-08T19:02:45.901Z,25.64